Temperatuur

Neerslag

Windstoten

Onweer

Onweerkansen (GFS)

Untitled Document





Vliegweer

[Source: ADDS]
METAR
EBBR 202120Z 00000KT CAVOK 14/12 Q1019 NOSIG =
TAF
EBBR 201720Z 2018/2124 11006KT 9999 FEW040CB PROB40 TEMPO 2018/2021 VRB15G25KT 3500 SHRA TSRA PROB30 TEMPO 2102/2106 4500 SHRA TEMPO 2102/2107 3000 BR PROB30 TEMPO 2104/2107 1200 BCFG PROB30 TEMPO 2115/2121 VRB15G25KT 4500 SHRA TSRA =

StormCell is een non profit organisatie zonder oogmerk tot sensatie